YV3136 SVTC-SVMG
Flight info
| Callsign | YV3136 |
|---|---|
| Flight time | 0h 55m |
| Altitude | 9500 |
| Route | DCT |
| Aircraft | PA31/L-SD/S |
Departure
| Time | 2026-04-25 19:26 |
|---|---|
| Airport | Tucupita Airport (SVTC) |
Arrival
| Time | 2026-04-25 20:21 |
|---|---|
| Airport | Del Caribe Santiago Mariño International Airport (SVMG) |
| Time | Latitude | Longitude | Altitude | Speed | Heading |
|---|---|---|---|---|---|
| 2026-04-25 19:21 | 9.08546 | -62.10041 | 25 ft | 0 kts | 245° |
| 2026-04-25 19:25 | 9.08585 | -62.10105 | 26 ft | 11 kts | 50° |
| 2026-04-25 19:25 | 9.08689 | -62.09868 | 26 ft | 72 kts | 65° |
| 2026-04-25 19:25 | 9.08935 | -62.09309 | 196 ft | 98 kts | 65° |
| 2026-04-25 19:26 | 9.09299 | -62.08684 | 366 ft | 110 kts | 50° |
| 2026-04-25 19:26 | 9.09740 | -62.08367 | 448 ft | 124 kts | 25° |
| 2026-04-25 19:26 | 9.10646 | -62.08423 | 595 ft | 145 kts | 335° |
| 2026-04-25 19:26 | 9.11479 | -62.09578 | 770 ft | 163 kts | 295° |
| 2026-04-25 19:27 | 9.11915 | -62.10626 | 983 ft | 162 kts | 295° |
| 2026-04-25 19:27 | 9.12061 | -62.10978 | 1059 ft | 161 kts | 295° |
| 2026-04-25 19:27 | 9.12768 | -62.12718 | 1425 ft | 160 kts | 295° |
| 2026-04-25 19:27 | 9.13241 | -62.13735 | 1636 ft | 159 kts | 303° |
| 2026-04-25 19:28 | 9.13939 | -62.14566 | 1840 ft | 156 kts | 320° |
| 2026-04-25 19:28 | 9.14714 | -62.15364 | 2056 ft | 157 kts | 319° |
| 2026-04-25 19:28 | 9.15487 | -62.16143 | 2268 ft | 158 kts | 319° |
| 2026-04-25 19:28 | 9.16260 | -62.16931 | 2487 ft | 158 kts | 319° |
| 2026-04-25 19:29 | 9.17036 | -62.17715 | 2707 ft | 158 kts | 319° |
| 2026-04-25 19:29 | 9.17553 | -62.18240 | 2855 ft | 158 kts | 319° |
| 2026-04-25 19:29 | 9.18593 | -62.19295 | 3151 ft | 158 kts | 318° |
| 2026-04-25 19:29 | 9.19371 | -62.20092 | 3373 ft | 159 kts | 317° |
| 2026-04-25 19:30 | 9.20147 | -62.20882 | 3597 ft | 159 kts | 317° |
| 2026-04-25 19:30 | 9.20938 | -62.21690 | 3826 ft | 160 kts | 317° |
| 2026-04-25 19:30 | 9.21728 | -62.22494 | 4053 ft | 161 kts | 317° |
| 2026-04-25 19:30 | 9.22253 | -62.23028 | 4207 ft | 161 kts | 317° |
| 2026-04-25 19:31 | 9.23315 | -62.24105 | 4525 ft | 162 kts | 316° |
| 2026-04-25 19:31 | 9.24108 | -62.24924 | 4755 ft | 162 kts | 317° |
| 2026-04-25 19:31 | 9.24903 | -62.25730 | 4985 ft | 163 kts | 316° |
| 2026-04-25 19:31 | 9.25698 | -62.26541 | 5223 ft | 163 kts | 316° |
| 2026-04-25 19:32 | 9.26498 | -62.27357 | 5454 ft | 163 kts | 316° |
| 2026-04-25 19:32 | 9.27307 | -62.28181 | 5690 ft | 164 kts | 316° |
| 2026-04-25 19:32 | 9.28105 | -62.28994 | 5925 ft | 165 kts | 316° |
| 2026-04-25 19:32 | 9.28380 | -62.29274 | 6004 ft | 165 kts | 315° |
| 2026-04-25 19:33 | 9.29726 | -62.30649 | 6399 ft | 165 kts | 315° |
| 2026-04-25 19:33 | 9.30266 | -62.31202 | 6547 ft | 165 kts | 315° |
| 2026-04-25 19:33 | 9.31351 | -62.32311 | 6845 ft | 166 kts | 315° |
| 2026-04-25 19:33 | 9.32167 | -62.33145 | 7077 ft | 166 kts | 316° |
| 2026-04-25 19:34 | 9.32980 | -62.33971 | 7309 ft | 166 kts | 316° |
| 2026-04-25 19:34 | 9.33519 | -62.34521 | 7462 ft | 166 kts | 315° |
| 2026-04-25 19:34 | 9.34336 | -62.35357 | 7698 ft | 166 kts | 316° |
| 2026-04-25 19:34 | 9.35154 | -62.36190 | 7927 ft | 166 kts | 316° |
| 2026-04-25 19:35 | 9.36229 | -62.37286 | 8230 ft | 166 kts | 315° |
| 2026-04-25 19:35 | 9.37045 | -62.38119 | 8451 ft | 166 kts | 315° |
| 2026-04-25 19:35 | 9.37862 | -62.38953 | 8677 ft | 166 kts | 315° |
| 2026-04-25 19:35 | 9.38670 | -62.39778 | 8902 ft | 166 kts | 315° |
| 2026-04-25 19:36 | 9.39218 | -62.40340 | 9051 ft | 167 kts | 316° |
| 2026-04-25 19:36 | 9.40311 | -62.41457 | 9349 ft | 167 kts | 316° |
| 2026-04-25 19:36 | 9.41132 | -62.42294 | 9575 ft | 167 kts | 316° |
| 2026-04-25 19:36 | 9.41680 | -62.42854 | 9723 ft | 167 kts | 316° |
| 2026-04-25 19:37 | 9.42771 | -62.43965 | 10026 ft | 168 kts | 316° |
| 2026-04-25 19:37 | 9.43322 | -62.44529 | 10180 ft | 170 kts | 315° |
| 2026-04-25 19:37 | 9.44457 | -62.45686 | 10182 ft | 194 kts | 315° |
| 2026-04-25 19:37 | 9.45418 | -62.46677 | 10278 ft | 190 kts | 315° |
| 2026-04-25 19:38 | 9.46352 | -62.47630 | 10322 ft | 193 kts | 315° |
| 2026-04-25 19:38 | 9.47317 | -62.48618 | 10334 ft | 201 kts | 315° |
| 2026-04-25 19:38 | 9.48317 | -62.49639 | 10332 ft | 203 kts | 315° |
| 2026-04-25 19:38 | 9.48985 | -62.50321 | 10333 ft | 203 kts | 315° |
| 2026-04-25 19:39 | 9.49979 | -62.51336 | 10335 ft | 205 kts | 315° |
| 2026-04-25 19:39 | 9.50997 | -62.52375 | 10338 ft | 206 kts | 315° |
| 2026-04-25 19:39 | 9.52004 | -62.53406 | 10331 ft | 207 kts | 315° |
| 2026-04-25 19:39 | 9.53022 | -62.54444 | 10334 ft | 207 kts | 315° |
| 2026-04-25 19:40 | 9.54369 | -62.55822 | 10335 ft | 207 kts | 315° |
| 2026-04-25 19:40 | 9.55379 | -62.56853 | 10336 ft | 207 kts | 315° |
| 2026-04-25 19:40 | 9.56062 | -62.57552 | 10335 ft | 207 kts | 315° |
| 2026-04-25 19:40 | 9.57413 | -62.58933 | 10340 ft | 207 kts | 315° |
| 2026-04-25 19:41 | 9.58098 | -62.59634 | 10334 ft | 207 kts | 315° |
| 2026-04-25 19:41 | 9.59441 | -62.61006 | 10337 ft | 207 kts | 315° |
| 2026-04-25 19:41 | 9.60457 | -62.62045 | 10339 ft | 207 kts | 315° |
| 2026-04-25 19:41 | 9.60793 | -62.62390 | 10337 ft | 207 kts | 315° |
| 2026-04-25 19:42 | 9.62488 | -62.64122 | 10337 ft | 207 kts | 315° |
| 2026-04-25 19:42 | 9.63160 | -62.64810 | 10335 ft | 207 kts | 315° |
| 2026-04-25 19:42 | 9.64519 | -62.66205 | 10333 ft | 207 kts | 315° |
| 2026-04-25 19:42 | 9.65535 | -62.67241 | 10335 ft | 207 kts | 315° |
| 2026-04-25 19:43 | 9.66541 | -62.68271 | 10333 ft | 207 kts | 315° |
| 2026-04-25 19:43 | 9.67561 | -62.69315 | 10331 ft | 207 kts | 315° |
| 2026-04-25 19:43 | 9.68573 | -62.70349 | 10331 ft | 207 kts | 315° |
| 2026-04-25 19:43 | 9.69590 | -62.71389 | 10332 ft | 207 kts | 315° |
| 2026-04-25 19:44 | 9.70608 | -62.72433 | 10332 ft | 207 kts | 315° |
| 2026-04-25 19:44 | 9.71286 | -62.73127 | 10327 ft | 207 kts | 315° |
| 2026-04-25 19:44 | 9.72632 | -62.74505 | 10327 ft | 206 kts | 315° |
| 2026-04-25 19:44 | 9.73642 | -62.75539 | 10329 ft | 206 kts | 315° |
| 2026-04-25 19:45 | 9.74322 | -62.76238 | 10333 ft | 206 kts | 315° |
| 2026-04-25 19:45 | 9.75672 | -62.77620 | 10337 ft | 207 kts | 315° |
| 2026-04-25 19:45 | 9.76341 | -62.78305 | 10338 ft | 207 kts | 315° |
| 2026-04-25 19:45 | 9.77698 | -62.79694 | 10335 ft | 207 kts | 315° |
| 2026-04-25 19:46 | 9.78721 | -62.80740 | 10336 ft | 207 kts | 315° |
| 2026-04-25 19:46 | 9.79401 | -62.81436 | 10335 ft | 207 kts | 315° |
| 2026-04-25 19:46 | 9.80410 | -62.82471 | 10340 ft | 207 kts | 315° |
| 2026-04-25 19:46 | 9.81763 | -62.83859 | 10340 ft | 207 kts | 315° |
| 2026-04-25 19:47 | 9.82784 | -62.84904 | 10334 ft | 206 kts | 315° |
| 2026-04-25 19:47 | 9.83786 | -62.85931 | 10335 ft | 206 kts | 315° |
| 2026-04-25 19:47 | 9.84470 | -62.86634 | 10337 ft | 206 kts | 315° |
| 2026-04-25 19:47 | 9.85805 | -62.88004 | 10342 ft | 206 kts | 315° |
| 2026-04-25 19:48 | 9.86826 | -62.89051 | 10343 ft | 206 kts | 315° |
| 2026-04-25 19:48 | 9.87835 | -62.90084 | 10346 ft | 206 kts | 315° |
| 2026-04-25 19:48 | 9.88503 | -62.90769 | 10349 ft | 206 kts | 315° |
| 2026-04-25 19:48 | 9.89515 | -62.91807 | 10353 ft | 206 kts | 315° |
| 2026-04-25 19:49 | 9.90520 | -62.92837 | 10355 ft | 206 kts | 315° |
| 2026-04-25 19:49 | 9.91205 | -62.93539 | 10353 ft | 206 kts | 315° |
| 2026-04-25 19:49 | 9.92546 | -62.94913 | 10352 ft | 207 kts | 315° |
| 2026-04-25 19:49 | 9.93906 | -62.96308 | 10354 ft | 207 kts | 315° |
| 2026-04-25 19:50 | 9.95592 | -62.98039 | 10353 ft | 207 kts | 315° |
| 2026-04-25 19:50 | 9.96597 | -62.99072 | 10349 ft | 207 kts | 315° |
| 2026-04-25 19:50 | 9.97946 | -63.00456 | 10350 ft | 206 kts | 315° |
| 2026-04-25 19:51 | 9.98955 | -63.01492 | 10358 ft | 206 kts | 315° |
| 2026-04-25 19:51 | 9.99971 | -63.02534 | 10351 ft | 206 kts | 315° |
| 2026-04-25 19:51 | 10.00638 | -63.03218 | 10366 ft | 205 kts | 315° |
| 2026-04-25 19:51 | 10.01985 | -63.04601 | 10364 ft | 206 kts | 315° |
| 2026-04-25 19:52 | 10.02651 | -63.05285 | 10364 ft | 206 kts | 315° |
| 2026-04-25 19:52 | 10.03998 | -63.06667 | 10363 ft | 206 kts | 315° |
| 2026-04-25 19:52 | 10.05010 | -63.07708 | 10364 ft | 206 kts | 315° |
| 2026-04-25 19:52 | 10.06026 | -63.08750 | 10365 ft | 206 kts | 315° |
| 2026-04-25 19:53 | 10.07029 | -63.09779 | 10364 ft | 206 kts | 315° |
| 2026-04-25 19:53 | 10.08041 | -63.10818 | 10364 ft | 206 kts | 315° |
| 2026-04-25 19:53 | 10.08715 | -63.11511 | 10362 ft | 206 kts | 315° |
| 2026-04-25 19:53 | 10.09721 | -63.12545 | 10360 ft | 206 kts | 315° |
| 2026-04-25 19:54 | 10.11064 | -63.13929 | 10366 ft | 205 kts | 315° |
| 2026-04-25 19:54 | 10.12070 | -63.14961 | 10372 ft | 204 kts | 315° |
| 2026-04-25 19:54 | 10.13072 | -63.15992 | 10386 ft | 204 kts | 315° |
| 2026-04-25 19:54 | 10.13396 | -63.16324 | 10385 ft | 204 kts | 315° |
| 2026-04-25 19:55 | 10.15072 | -63.18046 | 10382 ft | 206 kts | 315° |
| 2026-04-25 19:55 | 10.16081 | -63.19085 | 10374 ft | 206 kts | 315° |
| 2026-04-25 19:55 | 10.16760 | -63.19781 | 10373 ft | 206 kts | 315° |
| 2026-04-25 19:55 | 10.18089 | -63.21148 | 10384 ft | 205 kts | 315° |
| 2026-04-25 19:56 | 10.19098 | -63.22185 | 10376 ft | 204 kts | 315° |
| 2026-04-25 19:56 | 10.20103 | -63.23219 | 10381 ft | 203 kts | 315° |
| 2026-04-25 19:56 | 10.20764 | -63.23900 | 10393 ft | 203 kts | 315° |
| 2026-04-25 19:56 | 10.21762 | -63.24925 | 10394 ft | 204 kts | 315° |
| 2026-04-25 19:57 | 10.23082 | -63.26283 | 10403 ft | 204 kts | 315° |
| 2026-04-25 19:57 | 10.23750 | -63.26970 | 10409 ft | 204 kts | 315° |
| 2026-04-25 19:57 | 10.24765 | -63.28014 | 10416 ft | 206 kts | 315° |
| 2026-04-25 19:57 | 10.26062 | -63.29415 | 10408 ft | 205 kts | 323° |
| 2026-04-25 19:58 | 10.27389 | -63.29844 | 10441 ft | 196 kts | 3° |
| 2026-04-25 19:58 | 10.28293 | -63.29808 | 10429 ft | 194 kts | 5° |
| 2026-04-25 19:58 | 10.30029 | -63.29666 | 10206 ft | 184 kts | 8° |
| 2026-04-25 19:58 | 10.31322 | -63.29552 | 10032 ft | 183 kts | 8° |
| 2026-04-25 19:59 | 10.32166 | -63.29471 | 9920 ft | 182 kts | 8° |
| 2026-04-25 19:59 | 10.33847 | -63.29300 | 9689 ft | 180 kts | 8° |
| 2026-04-25 19:59 | 10.34678 | -63.29217 | 9570 ft | 179 kts | 8° |
| 2026-04-25 19:59 | 10.36334 | -63.29053 | 9326 ft | 177 kts | 8° |
| 2026-04-25 20:00 | 10.37543 | -63.28932 | 9148 ft | 175 kts | 8° |
| 2026-04-25 20:00 | 10.37961 | -63.28892 | 9087 ft | 175 kts | 8° |
| 2026-04-25 20:00 | 10.39570 | -63.28737 | 8853 ft | 174 kts | 8° |
| 2026-04-25 20:00 | 10.41168 | -63.28577 | 8616 ft | 172 kts | 9° |
| 2026-04-25 20:01 | 10.43424 | -63.28357 | 8599 ft | 150 kts | 10° |
| 2026-04-25 20:01 | 10.44105 | -63.28287 | 8601 ft | 144 kts | 9° |
| 2026-04-25 20:01 | 10.45395 | -63.28383 | 8592 ft | 137 kts | 336° |
| 2026-04-25 20:02 | 10.45905 | -63.28728 | 8589 ft | 129 kts | 324° |
| 2026-04-25 20:02 | 10.46612 | -63.29516 | 8574 ft | 98 kts | 310° |
| 2026-04-25 20:02 | 10.46909 | -63.29894 | 8528 ft | 111 kts | 310° |
| 2026-04-25 20:02 | 10.47465 | -63.30613 | 8493 ft | 146 kts | 306° |
| 2026-04-25 20:03 | 10.48307 | -63.31819 | 8490 ft | 165 kts | 305° |
| 2026-04-25 20:03 | 10.48985 | -63.32812 | 8493 ft | 174 kts | 304° |
| 2026-04-25 20:03 | 10.49447 | -63.33492 | 8489 ft | 179 kts | 304° |
| 2026-04-25 20:03 | 10.50407 | -63.34909 | 8487 ft | 185 kts | 304° |
| 2026-04-25 20:04 | 10.50899 | -63.35633 | 8494 ft | 187 kts | 304° |
| 2026-04-25 20:04 | 10.51901 | -63.37110 | 8489 ft | 190 kts | 304° |
| 2026-04-25 20:04 | 10.52404 | -63.37852 | 8485 ft | 191 kts | 304° |
| 2026-04-25 20:04 | 10.53160 | -63.38967 | 8477 ft | 192 kts | 304° |
| 2026-04-25 20:05 | 10.53914 | -63.40080 | 8482 ft | 192 kts | 304° |
| 2026-04-25 20:05 | 10.54669 | -63.41195 | 8472 ft | 192 kts | 304° |
| 2026-04-25 20:05 | 10.55429 | -63.42318 | 8467 ft | 191 kts | 304° |
| 2026-04-25 20:05 | 10.56437 | -63.43805 | 8476 ft | 191 kts | 304° |
| 2026-04-25 20:06 | 10.56944 | -63.44552 | 8476 ft | 191 kts | 304° |
| 2026-04-25 20:06 | 10.57702 | -63.45670 | 8476 ft | 192 kts | 304° |
| 2026-04-25 20:06 | 10.58451 | -63.46778 | 8477 ft | 193 kts | 304° |
| 2026-04-25 20:06 | 10.59219 | -63.47909 | 8477 ft | 193 kts | 304° |
| 2026-04-25 20:07 | 10.59977 | -63.49033 | 8471 ft | 193 kts | 304° |
| 2026-04-25 20:07 | 10.60747 | -63.50169 | 8475 ft | 194 kts | 304° |
| 2026-04-25 20:07 | 10.61513 | -63.51302 | 8472 ft | 194 kts | 304° |
| 2026-04-25 20:07 | 10.62278 | -63.52433 | 8467 ft | 194 kts | 304° |
| 2026-04-25 20:08 | 10.63042 | -63.53562 | 8466 ft | 193 kts | 304° |
| 2026-04-25 20:08 | 10.63803 | -63.54687 | 8461 ft | 193 kts | 304° |
| 2026-04-25 20:08 | 10.64559 | -63.55806 | 8473 ft | 193 kts | 304° |
| 2026-04-25 20:08 | 10.65325 | -63.56939 | 8476 ft | 193 kts | 304° |
| 2026-04-25 20:09 | 10.66084 | -63.58058 | 8466 ft | 194 kts | 304° |
| 2026-04-25 20:09 | 10.67112 | -63.59581 | 8474 ft | 195 kts | 304° |
| 2026-04-25 20:09 | 10.67626 | -63.60341 | 8465 ft | 195 kts | 304° |
| 2026-04-25 20:09 | 10.68389 | -63.61468 | 8494 ft | 196 kts | 304° |
| 2026-04-25 20:10 | 10.69166 | -63.62616 | 8476 ft | 197 kts | 304° |
| 2026-04-25 20:10 | 10.69944 | -63.63768 | 8464 ft | 197 kts | 304° |
| 2026-04-25 20:10 | 10.70722 | -63.64919 | 8459 ft | 196 kts | 304° |
| 2026-04-25 20:10 | 10.71495 | -63.66061 | 8472 ft | 195 kts | 304° |
| 2026-04-25 20:11 | 10.72269 | -63.67207 | 8469 ft | 195 kts | 304° |
| 2026-04-25 20:11 | 10.73038 | -63.68344 | 8474 ft | 195 kts | 304° |
| 2026-04-25 20:11 | 10.73813 | -63.69494 | 8465 ft | 196 kts | 304° |
| 2026-04-25 20:11 | 10.74836 | -63.71008 | 8486 ft | 193 kts | 304° |
| 2026-04-25 20:12 | 10.75332 | -63.71739 | 8615 ft | 185 kts | 304° |
| 2026-04-25 20:12 | 10.76067 | -63.72826 | 8503 ft | 189 kts | 304° |
| 2026-04-25 20:12 | 10.76810 | -63.73938 | 8289 ft | 189 kts | 304° |
| 2026-04-25 20:12 | 10.77285 | -63.74666 | 8167 ft | 187 kts | 301° |
| 2026-04-25 20:13 | 10.78118 | -63.76196 | 7874 ft | 184 kts | 298° |
| 2026-04-25 20:13 | 10.78728 | -63.77330 | 7635 ft | 182 kts | 298° |
| 2026-04-25 20:13 | 10.79535 | -63.78841 | 7330 ft | 180 kts | 297° |
| 2026-04-25 20:13 | 10.79932 | -63.79581 | 7167 ft | 178 kts | 298° |
| 2026-04-25 20:14 | 10.80717 | -63.81036 | 6847 ft | 174 kts | 297° |
| 2026-04-25 20:14 | 10.81097 | -63.81748 | 6673 ft | 168 kts | 297° |
| 2026-04-25 20:14 | 10.81633 | -63.82758 | 6401 ft | 157 kts | 297° |
| 2026-04-25 20:14 | 10.82117 | -63.83724 | 6129 ft | 149 kts | 296° |
| 2026-04-25 20:15 | 10.82716 | -63.84936 | 5759 ft | 141 kts | 296° |
| 2026-04-25 20:15 | 10.83005 | -63.85527 | 5576 ft | 138 kts | 296° |
| 2026-04-25 20:15 | 10.83426 | -63.86391 | 5297 ft | 135 kts | 296° |
| 2026-04-25 20:15 | 10.83912 | -63.87373 | 4942 ft | 122 kts | 296° |
| 2026-04-25 20:16 | 10.84160 | -63.87886 | 4744 ft | 123 kts | 296° |
| 2026-04-25 20:16 | 10.84537 | -63.88679 | 4446 ft | 124 kts | 296° |
| 2026-04-25 20:16 | 10.84912 | -63.89466 | 4142 ft | 125 kts | 296° |
| 2026-04-25 20:16 | 10.85292 | -63.90261 | 3849 ft | 125 kts | 296° |
| 2026-04-25 20:17 | 10.85666 | -63.91048 | 3558 ft | 124 kts | 296° |
| 2026-04-25 20:17 | 10.86156 | -63.92103 | 3171 ft | 124 kts | 296° |
| 2026-04-25 20:17 | 10.86394 | -63.92634 | 2980 ft | 123 kts | 293° |
| 2026-04-25 20:17 | 10.86680 | -63.93452 | 2693 ft | 123 kts | 287° |
| 2026-04-25 20:18 | 10.86887 | -63.94291 | 2404 ft | 123 kts | 284° |
| 2026-04-25 20:18 | 10.87145 | -63.95423 | 2021 ft | 122 kts | 284° |
| 2026-04-25 20:18 | 10.87270 | -63.95983 | 1832 ft | 122 kts | 284° |
| 2026-04-25 20:18 | 10.87452 | -63.96809 | 1579 ft | 111 kts | 284° |
| 2026-04-25 20:19 | 10.87607 | -63.97512 | 1349 ft | 95 kts | 284° |
| 2026-04-25 20:19 | 10.87737 | -63.98148 | 1070 ft | 91 kts | 282° |
| 2026-04-25 20:19 | 10.87880 | -63.98801 | 923 ft | 98 kts | 303° |
| 2026-04-25 20:19 | 10.88679 | -63.99190 | 825 ft | 98 kts | 2° |
| 2026-04-25 20:20 | 10.89333 | -63.99161 | 849 ft | 91 kts | 9° |
| 2026-04-25 20:20 | 10.89974 | -63.99107 | 694 ft | 94 kts | 10° |
| 2026-04-25 20:20 | 10.90398 | -63.99003 | 543 ft | 92 kts | 36° |
| 2026-04-25 20:20 | 10.90817 | -63.98530 | 299 ft | 90 kts | 68° |
| 2026-04-25 20:21 | 10.90995 | -63.97940 | 102 ft | 84 kts | 76° |
| 2026-04-25 20:21 | 10.91105 | -63.97418 | 62 ft | 64 kts | 77° |
| 2026-04-25 20:21 | 10.91186 | -63.97015 | 58 ft | 53 kts | 76° |
| 2026-04-25 20:21 | 10.91277 | -63.96589 | 58 ft | 37 kts | 75° |
| 2026-04-25 20:22 | 10.91325 | -63.96465 | 58 ft | 19 kts | 36° |
| 2026-04-25 20:22 | 10.91423 | -63.96465 | 58 ft | 23 kts | 7° |
| 2026-04-25 20:22 | 10.91641 | -63.96436 | 59 ft | 18 kts | 332° |
| 2026-04-25 20:22 | 10.91684 | -63.96460 | 59 ft | 6 kts | 83° |
| 2026-04-25 20:23 | 10.91684 | -63.96448 | 59 ft | 0 kts | 78° |